createdAt,value
2023-02-22T00:02:27.200Z,-5.54
2023-02-22T00:04:54.154Z,-5.50
2023-02-22T00:07:21.493Z,-5.64
2023-02-22T00:09:47.976Z,-5.65
2023-02-22T00:12:14.422Z,-5.59
2023-02-22T00:14:42.255Z,-5.27
2023-02-22T00:17:08.787Z,-5.31
2023-02-22T00:19:35.811Z,-5.51
2023-02-22T00:22:03.305Z,-5.59
2023-02-22T00:24:31.428Z,-5.99
2023-02-22T00:26:57.921Z,-5.85
2023-02-22T00:29:25.129Z,-5.80
2023-02-22T00:31:51.795Z,-6.23
2023-02-22T00:34:18.301Z,-6.29
2023-02-22T00:36:48.325Z,-5.75
2023-02-22T00:39:14.822Z,-5.43
2023-02-22T00:41:41.409Z,-5.67
2023-02-22T00:44:08.030Z,-5.54
2023-02-22T00:46:34.554Z,-5.85
2023-02-22T00:49:00.994Z,-5.81
2023-02-22T00:51:28.897Z,-5.71
2023-02-22T00:53:55.320Z,-6.06
2023-02-22T00:56:22.116Z,-5.98
2023-02-22T00:58:48.815Z,-5.88
2023-02-22T01:01:15.603Z,-6.32
2023-02-22T01:03:42.319Z,-6.23
2023-02-22T01:06:08.930Z,-6.15
2023-02-22T01:08:35.573Z,-6.18
2023-02-22T01:11:02.052Z,-6.27
2023-02-22T01:13:28.611Z,-6.20
2023-02-22T01:15:56.743Z,-5.92
2023-02-22T01:18:23.505Z,-6.07
2023-02-22T01:20:50.035Z,-6.22
2023-02-22T01:23:18.835Z,-6.62
2023-02-22T01:25:45.912Z,-7.06
2023-02-22T01:28:13.744Z,-6.95
2023-02-22T01:30:40.319Z,-7.18
2023-02-22T01:33:07.655Z,-7.19
2023-02-22T01:35:35.988Z,-7.02
2023-02-22T01:38:02.699Z,-7.13
2023-02-22T01:40:30.878Z,-7.33
2023-02-22T01:42:58.713Z,-7.58
2023-02-22T01:45:38.481Z,-8.01
2023-02-22T01:48:08.696Z,-8.15
2023-02-22T01:50:41.062Z,-8.19
2023-02-22T01:53:08.312Z,-7.96
2023-02-22T01:55:35.548Z,-8.05
2023-02-22T01:58:04.336Z,-8.25
2023-02-22T02:00:31.012Z,-8.57
2023-02-22T02:03:02.858Z,-8.47
2023-02-22T02:05:31.438Z,-8.31
2023-02-22T02:07:58.395Z,-8.23
2023-02-22T02:10:26.707Z,-8.58
2023-02-22T02:12:53.339Z,-8.82
2023-02-22T02:15:19.822Z,-8.49
2023-02-22T02:17:47.159Z,-8.59
2023-02-22T02:20:17.268Z,-8.85
2023-02-22T02:22:44.721Z,-8.94
2023-02-22T02:25:31.437Z,-9.16
2023-02-22T02:28:07.962Z,-9.53
2023-02-22T02:30:34.490Z,-8.96
2023-02-22T02:33:06.916Z,-8.59
2023-02-22T02:35:48.824Z,-9.11
2023-02-22T02:38:41.772Z,-9.59
2023-02-22T02:41:19.712Z,-9.74
2023-02-22T02:43:51.965Z,-9.83
2023-02-22T02:46:22.097Z,-9.65
2023-02-22T02:48:56.764Z,-9.43
2023-02-22T02:51:26.609Z,-9.29
2023-02-22T02:53:54.370Z,-9.68
2023-02-22T02:56:20.947Z,-9.84
2023-02-22T02:58:52.894Z,-9.90
2023-02-22T03:01:38.398Z,-9.90
2023-02-22T03:04:30.648Z,-9.92
2023-02-22T03:06:57.120Z,-9.89
2023-02-22T03:09:29.362Z,-9.37
2023-02-22T03:12:14.841Z,-9.57
2023-02-22T03:14:50.757Z,-9.77
2023-02-22T03:17:24.068Z,-9.86
2023-02-22T03:20:11.762Z,-9.69
2023-02-22T03:22:55.404Z,-9.52
2023-02-22T03:25:31.165Z,-9.68
2023-02-22T03:28:04.722Z,-10.48
2023-02-22T03:30:54.387Z,-10.48
2023-02-22T03:33:33.692Z,-9.78
2023-02-22T03:36:03.684Z,-10.39
2023-02-22T03:38:32.154Z,-11.21
2023-02-22T03:41:00.905Z,-11.63
2023-02-22T03:43:34.754Z,-11.87
2023-02-22T03:46:05.017Z,-11.68
2023-02-22T03:48:49.961Z,-10.56
2023-02-22T03:51:17.630Z,-10.01
2023-02-22T03:53:50.317Z,-10.36
2023-02-22T03:56:21.643Z,-10.66
2023-02-22T03:58:49.252Z,-11.13
2023-02-22T04:01:16.701Z,-11.36
2023-02-22T04:03:43.503Z,-11.73
2023-02-22T04:06:10.461Z,-11.95
2023-02-22T04:08:36.970Z,-11.74
2023-02-22T04:11:04.575Z,-11.36
2023-02-22T04:13:31.067Z,-11.60
2023-02-22T04:15:57.604Z,-11.94
2023-02-22T04:18:24.117Z,-12.47
2023-02-22T04:20:51.761Z,-12.69
2023-02-22T04:23:18.300Z,-12.82
2023-02-22T04:25:44.724Z,-12.86
2023-02-22T04:28:12.285Z,-12.80
2023-02-22T04:30:38.786Z,-12.40
2023-02-22T04:33:05.334Z,-11.54
2023-02-22T04:35:34.350Z,-11.11
2023-02-22T04:38:02.544Z,-11.97
2023-02-22T04:40:28.987Z,-12.07
2023-02-22T04:42:55.619Z,-11.79
2023-02-22T04:45:22.089Z,-11.58
2023-02-22T04:47:48.543Z,-11.47
2023-02-22T04:50:16.308Z,-11.54
2023-02-22T04:52:42.777Z,-11.44
2023-02-22T04:55:09.973Z,-11.02
2023-02-22T04:57:36.432Z,-11.06
2023-02-22T05:00:04.586Z,-11.21
2023-02-22T05:02:31.253Z,-11.70
2023-02-22T05:04:57.762Z,-11.65
2023-02-22T05:07:24.232Z,-11.64
2023-02-22T05:09:50.726Z,-11.29
2023-02-22T05:12:17.250Z,-11.76
2023-02-22T05:14:44.531Z,-11.80
2023-02-22T05:17:10.973Z,-11.93
2023-02-22T05:19:37.509Z,-12.19
2023-02-22T05:22:07.097Z,-12.31
2023-02-22T05:24:33.600Z,-12.03
2023-02-22T05:27:00.112Z,-11.42
2023-02-22T05:29:27.283Z,-11.53
2023-02-22T05:31:53.874Z,-11.78
2023-02-22T05:34:20.373Z,-12.06
2023-02-22T05:36:46.868Z,-11.55
2023-02-22T05:39:13.314Z,-10.97
2023-02-22T05:41:39.792Z,-10.84
2023-02-22T05:44:06.309Z,-11.15
2023-02-22T05:46:32.811Z,-11.84
2023-02-22T05:48:59.393Z,-12.29
2023-02-22T05:51:25.893Z,-12.11
2023-02-22T05:53:52.656Z,-12.19
2023-02-22T05:56:26.200Z,-11.74
2023-02-22T05:58:52.793Z,-10.94
2023-02-22T06:01:19.655Z,-10.61
2023-02-22T06:03:47.354Z,-10.53
2023-02-22T06:06:13.800Z,-11.28
2023-02-22T06:08:40.524Z,-11.49
2023-02-22T06:11:06.993Z,-11.34
2023-02-22T06:13:33.441Z,-11.49
2023-02-22T06:16:00.063Z,-10.79
2023-02-22T06:18:26.900Z,-10.31
2023-02-22T06:20:53.388Z,-10.02
2023-02-22T06:23:20.287Z,-9.83
2023-02-22T06:25:47.173Z,-10.42
2023-02-22T06:28:14.322Z,-10.42
2023-02-22T06:30:43.485Z,-10.90
2023-02-22T06:33:10.440Z,-11.11
2023-02-22T06:35:36.925Z,-11.31
2023-02-22T06:38:03.455Z,-11.16
2023-02-22T06:40:29.960Z,-11.15
2023-02-22T06:42:57.261Z,-11.16
2023-02-22T06:45:24.040Z,-10.73
2023-02-22T06:47:50.558Z,-10.27
2023-02-22T06:50:20.223Z,-9.87
2023-02-22T06:52:48.020Z,-9.46
2023-02-22T06:55:34.817Z,-9.66
2023-02-22T06:58:01.836Z,-9.78
2023-02-22T07:00:29.070Z,-9.90
2023-02-22T07:02:56.070Z,-9.72
2023-02-22T07:05:23.580Z,-9.41
2023-02-22T07:07:52.572Z,-9.18
2023-02-22T07:10:21.551Z,-9.09
2023-02-22T07:12:48.979Z,-9.13
2023-02-22T07:15:18.137Z,-9.88
2023-02-22T07:17:44.918Z,-9.90
2023-02-22T07:20:12.773Z,-9.73
2023-02-22T07:22:40.549Z,-9.15
2023-02-22T07:25:10.102Z,-9.07
2023-02-22T07:27:37.259Z,-8.97
2023-02-22T07:30:05.102Z,-8.80
2023-02-22T07:32:31.626Z,-8.64
2023-02-22T07:34:58.290Z,-8.75
2023-02-22T07:37:24.725Z,-8.86
2023-02-22T07:39:51.230Z,-8.72
2023-02-22T07:42:17.670Z,-8.73
2023-02-22T07:44:44.136Z,-8.77
2023-02-22T07:47:12.727Z,-8.47
2023-02-22T07:49:39.439Z,-8.47
2023-02-22T07:52:09.008Z,-8.40
2023-02-22T07:54:35.468Z,-8.51
2023-02-22T07:57:03.803Z,-8.49
2023-02-22T07:59:30.276Z,-8.49
2023-02-22T08:01:56.748Z,-8.28
2023-02-22T08:04:23.208Z,-8.20
2023-02-22T08:06:50.310Z,-8.07
2023-02-22T08:09:16.765Z,-8.12
2023-02-22T08:11:43.236Z,-7.98
2023-02-22T08:14:09.732Z,-8.25
2023-02-22T08:16:36.239Z,-8.18
2023-02-22T08:19:02.727Z,-8.19
2023-02-22T08:21:30.469Z,-8.40
2023-02-22T08:23:57.375Z,-8.59
2023-02-22T08:26:25.454Z,-8.39
2023-02-22T08:28:53.292Z,-8.43
2023-02-22T08:31:20.083Z,-8.41
2023-02-22T08:33:50.070Z,-8.29
2023-02-22T08:36:16.589Z,-8.04
2023-02-22T08:38:43.073Z,-8.05
2023-02-22T08:41:09.539Z,-7.88
2023-02-22T08:43:35.976Z,-7.46
2023-02-22T08:46:02.521Z,-7.27
2023-02-22T08:48:29.083Z,-6.97
2023-02-22T08:50:57.405Z,-6.58
2023-02-22T08:53:23.848Z,-6.26
2023-02-22T08:55:50.353Z,-6.08
2023-02-22T08:58:16.803Z,-5.86
2023-02-22T09:00:44.846Z,-5.75
2023-02-22T09:03:15.923Z,-5.49
2023-02-22T09:05:43.308Z,-5.39
2023-02-22T09:08:09.895Z,-5.28
2023-02-22T09:10:36.835Z,-5.06
2023-02-22T09:13:05.631Z,-4.97
2023-02-22T09:15:32.800Z,-4.90
2023-02-22T09:17:59.626Z,-4.78
2023-02-22T09:20:26.225Z,-4.66
2023-02-22T09:22:53.112Z,-4.74
2023-02-22T09:25:20.765Z,-5.01
2023-02-22T09:27:48.370Z,-5.07
2023-02-22T09:30:24.002Z,-5.37
2023-02-22T09:32:54.781Z,-5.67
2023-02-22T09:35:26.971Z,-5.56
2023-02-22T09:37:57.121Z,-5.26
2023-02-22T09:40:29.939Z,-4.96
2023-02-22T09:43:09.293Z,-4.72
2023-02-22T09:45:48.222Z,-4.35
2023-02-22T09:48:21.945Z,-4.20
2023-02-22T09:50:50.793Z,-4.05
2023-02-22T09:53:29.834Z,-3.90
2023-02-22T09:56:02.203Z,-4.02
2023-02-22T09:58:33.500Z,-4.03
2023-02-22T10:01:18.904Z,-3.93
2023-02-22T10:03:48.202Z,-4.22
2023-02-22T10:06:17.707Z,-4.16
2023-02-22T10:08:47.342Z,-3.80
2023-02-22T10:11:16.841Z,-3.61
2023-02-22T10:14:03.557Z,-3.55
2023-02-22T10:16:42.232Z,-3.37
2023-02-22T10:19:21.011Z,-3.40
2023-02-22T10:22:07.714Z,-3.34
2023-02-22T10:24:39.818Z,-3.11
2023-02-22T10:27:08.468Z,-3.21
2023-02-22T10:29:39.924Z,-3.19
2023-02-22T10:32:07.013Z,-2.94
2023-02-22T10:34:39.717Z,-2.99
2023-02-22T10:37:25.581Z,-3.02
2023-02-22T10:39:56.471Z,-2.79
2023-02-22T10:42:25.113Z,-2.85
2023-02-22T10:44:51.580Z,-2.88
2023-02-22T10:47:21.045Z,-2.66
2023-02-22T10:49:53.577Z,-2.67
2023-02-22T10:52:24.487Z,-2.75
2023-02-22T10:54:52.006Z,-2.55
2023-02-22T10:57:24.874Z,-2.60
2023-02-22T10:59:53.394Z,-2.70
2023-02-22T11:02:19.909Z,-2.52
2023-02-22T11:04:46.439Z,-2.58
2023-02-22T11:07:24.214Z,-2.69
2023-02-22T11:10:00.188Z,-2.58
2023-02-22T11:12:29.677Z,-2.51
2023-02-22T11:14:56.922Z,-2.59
2023-02-22T11:17:30.448Z,-2.48
2023-02-22T11:19:57.691Z,-2.36
2023-02-22T11:22:31.016Z,-2.47
2023-02-22T11:25:07.502Z,-2.37
2023-02-22T11:27:38.698Z,-2.34
2023-02-22T11:30:11.263Z,-2.42
2023-02-22T11:32:43.727Z,-2.36
2023-02-22T11:35:37.055Z,-2.25
2023-02-22T11:38:21.249Z,-2.39
2023-02-22T11:41:04.476Z,-2.35
2023-02-22T11:43:31.332Z,-2.35
2023-02-22T11:46:09.910Z,-2.47
2023-02-22T11:48:39.358Z,-2.39
2023-02-22T11:51:14.498Z,-2.31
2023-02-22T11:54:08.226Z,-2.46
2023-02-22T11:56:40.162Z,-2.30
2023-02-22T11:59:11.534Z,-2.34
2023-02-22T12:01:37.979Z,-2.40
2023-02-22T12:04:23.897Z,-2.32
2023-02-22T12:06:57.657Z,-2.26
2023-02-22T12:09:43.513Z,-2.41
2023-02-22T12:12:31.124Z,-2.24
2023-02-22T12:15:17.801Z,-2.20
2023-02-22T12:17:59.479Z,-2.33
2023-02-22T12:20:37.789Z,-2.15
2023-02-22T12:23:13.361Z,-2.17
2023-02-22T12:25:58.461Z,-2.24
2023-02-22T12:28:32.422Z,-2.05
2023-02-22T12:31:07.020Z,-2.10
2023-02-22T12:33:42.567Z,-2.20
2023-02-22T12:36:14.234Z,-1.96
2023-02-22T12:38:44.413Z,-2.13
2023-02-22T12:41:20.852Z,-2.16
2023-02-22T12:44:00.089Z,-1.92
2023-02-22T12:46:29.957Z,-2.04
2023-02-22T12:49:08.640Z,-2.24
2023-02-22T12:51:49.703Z,-2.02
2023-02-22T12:54:19.183Z,-2.13
2023-02-22T12:56:58.480Z,-2.19
2023-02-22T12:59:38.955Z,-1.97
2023-02-22T13:02:17.588Z,-2.13
2023-02-22T13:04:44.114Z,-2.15
2023-02-22T13:07:24.034Z,-1.96
2023-02-22T13:10:06.636Z,-2.10
2023-02-22T13:12:36.186Z,-2.15
2023-02-22T13:15:22.868Z,-1.92
2023-02-22T13:18:01.866Z,-2.02
2023-02-22T13:20:35.398Z,-2.16
2023-02-22T13:23:05.056Z,-1.93
2023-02-22T13:25:31.470Z,-2.07
2023-02-22T13:28:12.844Z,-2.17
2023-02-22T13:30:41.730Z,-1.95
2023-02-22T13:33:14.535Z,-2.05
2023-02-22T13:35:41.006Z,-2.14
2023-02-22T13:38:10.507Z,-1.98
2023-02-22T13:40:55.984Z,-2.11
2023-02-22T13:43:41.196Z,-2.17
2023-02-22T13:46:18.608Z,-2.00
2023-02-22T13:48:49.533Z,-2.09
2023-02-22T13:51:16.033Z,-2.18
2023-02-22T13:53:48.710Z,-2.00
2023-02-22T13:56:16.243Z,-2.00
2023-02-22T13:59:09.042Z,-2.13
2023-02-22T14:01:40.531Z,-1.99
2023-02-22T14:04:39.888Z,-1.95
2023-02-22T14:07:34.152Z,-2.06
2023-02-22T14:10:01.809Z,-1.85
2023-02-22T14:12:31.510Z,-1.96
2023-02-22T14:15:22.037Z,-2.04
2023-02-22T14:17:57.558Z,-1.82
2023-02-22T14:20:32.543Z,-1.93
2023-02-22T14:23:19.968Z,-2.03
2023-02-22T14:25:47.409Z,-1.77
2023-02-22T14:28:32.674Z,-1.80
2023-02-22T14:31:34.396Z,-1.86
2023-02-22T14:34:04.102Z,-1.61
2023-02-22T14:36:30.595Z,-1.78
2023-02-22T14:39:02.167Z,-1.88
2023-02-22T14:41:30.126Z,-1.67
2023-02-22T14:43:57.553Z,-1.84
2023-02-22T14:46:28.214Z,-1.99
2023-02-22T14:49:00.521Z,-1.86
2023-02-22T14:51:34.298Z,-1.93
2023-02-22T14:54:08.951Z,-2.06
2023-02-22T14:56:49.259Z,-1.94
2023-02-22T14:59:25.181Z,-1.97
2023-02-22T15:02:11.507Z,-2.13
2023-02-22T15:04:38.672Z,-2.02
2023-02-22T15:07:09.680Z,-2.05
2023-02-22T15:09:37.668Z,-2.22
2023-02-22T15:12:04.191Z,-2.16
2023-02-22T15:14:33.105Z,-2.07
2023-02-22T15:17:01.448Z,-2.26
2023-02-22T15:19:30.362Z,-2.37
2023-02-22T15:21:57.928Z,-2.46
2023-02-22T15:24:25.912Z,-2.48
2023-02-22T15:27:01.914Z,-2.51
2023-02-22T15:29:49.400Z,-2.53
2023-02-22T15:32:20.361Z,-2.54
2023-02-22T15:34:46.933Z,-2.56
2023-02-22T15:37:25.352Z,-2.57
2023-02-22T15:39:59.348Z,-2.59
2023-02-22T15:42:29.368Z,-2.61
2023-02-22T15:44:56.474Z,-2.50
2023-02-22T15:47:24.408Z,-2.41
2023-02-22T15:50:15.267Z,-2.59
2023-02-22T15:52:49.660Z,-2.67
2023-02-22T15:55:17.116Z,-2.70
2023-02-22T15:57:44.072Z,-2.76
2023-02-22T16:00:39.077Z,-2.82
2023-02-22T16:03:07.761Z,-2.81
2023-02-22T16:06:00.352Z,-2.67
2023-02-22T16:08:53.976Z,-2.69
2023-02-22T16:11:29.826Z,-2.75
2023-02-22T16:14:01.356Z,-2.83
2023-02-22T16:16:32.930Z,-2.87
2023-02-22T16:19:18.016Z,-2.89
2023-02-22T16:21:58.326Z,-2.89
2023-02-22T16:24:27.446Z,-2.71
2023-02-22T16:27:06.033Z,-2.78
2023-02-22T16:29:32.831Z,-2.87
2023-02-22T16:31:59.477Z,-2.94
2023-02-22T16:34:25.981Z,-2.95
2023-02-22T16:36:52.538Z,-2.95
2023-02-22T16:39:24.974Z,-2.92
2023-02-22T16:41:51.895Z,-2.74
2023-02-22T16:44:18.381Z,-2.87
2023-02-22T16:46:45.163Z,-2.91
2023-02-22T16:49:12.288Z,-2.96
2023-02-22T16:51:47.465Z,-2.95
2023-02-22T16:54:15.203Z,-3.00
2023-02-22T16:56:41.775Z,-2.87
2023-02-22T16:59:14.132Z,-2.84
2023-02-22T17:01:40.998Z,-2.95
2023-02-22T17:04:18.018Z,-3.02
2023-02-22T17:06:44.615Z,-3.01
2023-02-22T17:09:11.062Z,-3.03
2023-02-22T17:11:38.192Z,-2.90
2023-02-22T17:14:05.019Z,-2.97
2023-02-22T17:16:31.493Z,-3.09
2023-02-22T17:18:57.929Z,-3.14
2023-02-22T17:21:24.392Z,-3.17
2023-02-22T17:23:51.245Z,-3.08
2023-02-22T17:26:18.366Z,-3.03
2023-02-22T17:28:45.122Z,-3.17
2023-02-22T17:31:19.959Z,-3.25
2023-02-22T17:33:46.481Z,-3.28
2023-02-22T17:36:13.384Z,-3.30
2023-02-22T17:38:41.707Z,-3.27
2023-02-22T17:41:08.235Z,-3.10
2023-02-22T17:43:35.022Z,-3.22
2023-02-22T17:46:07.917Z,-3.31
2023-02-22T17:48:34.815Z,-3.31
2023-02-22T17:51:04.917Z,-3.33
2023-02-22T17:53:31.435Z,-3.27
2023-02-22T17:55:58.222Z,-3.07
2023-02-22T17:58:28.895Z,-3.22
2023-02-22T18:00:59.253Z,-3.23
2023-02-22T18:03:26.568Z,-3.23
2023-02-22T18:05:57.575Z,-3.23
2023-02-22T18:08:24.978Z,-3.20
2023-02-22T18:10:56.279Z,-2.98
2023-02-22T18:13:24.084Z,-3.08
2023-02-22T18:15:50.889Z,-3.15
2023-02-22T18:18:18.049Z,-3.20
2023-02-22T18:20:46.439Z,-3.20
2023-02-22T18:23:16.171Z,-3.03
2023-02-22T18:26:03.855Z,-3.00
2023-02-22T18:28:35.605Z,-3.09
2023-02-22T18:31:06.346Z,-3.17
2023-02-22T18:33:32.812Z,-3.20
2023-02-22T18:36:00.448Z,-3.16
2023-02-22T18:38:26.910Z,-2.96
2023-02-22T18:41:03.598Z,-3.06
2023-02-22T18:43:31.784Z,-3.11
2023-02-22T18:46:12.062Z,-3.17
2023-02-22T18:48:38.816Z,-3.20
2023-02-22T18:51:07.049Z,-3.11
2023-02-22T18:53:33.502Z,-3.00
2023-02-22T18:56:09.146Z,-3.15
2023-02-22T18:58:38.597Z,-3.17
2023-02-22T19:01:06.343Z,-3.17
2023-02-22T19:03:34.250Z,-3.22
2023-02-22T19:06:04.879Z,-3.08
2023-02-22T19:08:32.606Z,-3.04
2023-02-22T19:11:03.782Z,-3.17
2023-02-22T19:13:30.869Z,-3.20
2023-02-22T19:15:57.389Z,-3.20
2023-02-22T19:18:25.145Z,-3.17
2023-02-22T19:21:01.661Z,-3.03
2023-02-22T19:23:28.656Z,-3.16
2023-02-22T19:25:55.756Z,-3.20
2023-02-22T19:28:28.049Z,-3.22
2023-02-22T19:30:54.542Z,-3.24
2023-02-22T19:33:26.082Z,-3.10
2023-02-22T19:35:52.560Z,-3.08
2023-02-22T19:38:19.665Z,-3.17
2023-02-22T19:40:46.692Z,-3.20
2023-02-22T19:43:14.229Z,-3.24
2023-02-22T19:45:41.012Z,-3.20
2023-02-22T19:48:07.480Z,-3.08
2023-02-22T19:50:34.034Z,-3.23
2023-02-22T19:53:00.532Z,-3.29
2023-02-22T19:55:32.288Z,-3.32
2023-02-22T19:57:59.180Z,-3.31
2023-02-22T20:00:27.180Z,-3.16
2023-02-22T20:03:05.655Z,-3.18
2023-02-22T20:05:42.095Z,-3.27
2023-02-22T20:08:08.812Z,-3.29
2023-02-22T20:10:35.277Z,-3.30
2023-02-22T20:13:01.815Z,-3.29
2023-02-22T20:15:28.396Z,-3.26
2023-02-22T20:17:55.086Z,-3.13
2023-02-22T20:20:25.734Z,-3.23
2023-02-22T20:22:52.384Z,-3.26
2023-02-22T20:25:19.292Z,-3.29
2023-02-22T20:27:46.600Z,-3.31
2023-02-22T20:30:13.200Z,-3.22
2023-02-22T20:32:39.907Z,-3.13
2023-02-22T20:35:06.930Z,-3.21
2023-02-22T20:37:34.338Z,-3.25
2023-02-22T20:40:00.885Z,-3.22
2023-02-22T20:42:27.452Z,-3.25
2023-02-22T20:44:54.310Z,-3.06
2023-02-22T20:47:21.383Z,-3.15
2023-02-22T20:49:47.851Z,-3.20
2023-02-22T20:52:14.426Z,-3.21
2023-02-22T20:54:40.972Z,-3.25
2023-02-22T20:57:08.099Z,-3.23
2023-02-22T20:59:34.727Z,-3.20
2023-02-22T21:02:01.837Z,-3.00
2023-02-22T21:04:33.695Z,-3.19
2023-02-22T21:07:03.228Z,-3.19
2023-02-22T21:09:29.951Z,-3.22
2023-02-22T21:11:56.485Z,-3.21
2023-02-22T21:14:24.337Z,-3.02
2023-02-22T21:16:51.920Z,-3.10
2023-02-22T21:19:25.920Z,-3.15
2023-02-22T21:21:54.881Z,-3.23
2023-02-22T21:24:25.891Z,-3.23
2023-02-22T21:26:52.482Z,-3.06
2023-02-22T21:29:19.460Z,-3.10
2023-02-22T21:31:46.061Z,-3.13
2023-02-22T21:34:13.642Z,-3.18
2023-02-22T21:36:40.513Z,-3.22
2023-02-22T21:39:17.926Z,-3.16
2023-02-22T21:41:50.445Z,-3.00
2023-02-22T21:44:17.976Z,-3.06
2023-02-22T21:46:44.804Z,-3.08
2023-02-22T21:49:11.492Z,-3.16
2023-02-22T21:51:38.248Z,-3.13
2023-02-22T21:54:06.760Z,-2.97
2023-02-22T21:56:37.119Z,-3.00
2023-02-22T21:59:13.858Z,-3.05
2023-02-22T22:01:47.151Z,-3.06
2023-02-22T22:04:18.873Z,-3.10
2023-02-22T22:06:47.656Z,-2.94
2023-02-22T22:09:20.234Z,-2.91
2023-02-22T22:11:46.657Z,-3.03
2023-02-22T22:14:13.640Z,-3.05
2023-02-22T22:16:40.603Z,-3.11
2023-02-22T22:19:07.713Z,-2.97
2023-02-22T22:21:34.157Z,-2.90
2023-02-22T22:24:02.045Z,-2.95
2023-02-22T22:26:28.542Z,-2.98
2023-02-22T22:28:58.064Z,-3.04
2023-02-22T22:31:28.837Z,-3.09
2023-02-22T22:33:56.325Z,-2.87
2023-02-22T22:36:23.609Z,-2.92
2023-02-22T22:38:50.509Z,-2.96
2023-02-22T22:41:18.896Z,-3.01
2023-02-22T22:43:48.806Z,-3.01
2023-02-22T22:46:17.370Z,-2.84
2023-02-22T22:48:47.043Z,-2.88
2023-02-22T22:51:20.204Z,-2.94
2023-02-22T22:53:47.969Z,-2.99
2023-02-22T22:56:18.602Z,-2.98
2023-02-22T22:58:53.006Z,-2.88
2023-02-22T23:01:24.100Z,-2.86
2023-02-22T23:03:55.784Z,-2.91
2023-02-22T23:06:26.481Z,-2.95
2023-02-22T23:08:58.347Z,-3.00
2023-02-22T23:11:24.849Z,-2.97
2023-02-22T23:13:51.339Z,-2.80
2023-02-22T23:16:19.819Z,-2.91
2023-02-22T23:18:46.319Z,-2.95
2023-02-22T23:21:12.753Z,-2.97
2023-02-22T23:23:39.652Z,-2.98
2023-02-22T23:26:11.658Z,-2.83
2023-02-22T23:28:39.832Z,-2.82
2023-02-22T23:31:10.382Z,-2.94
2023-02-22T23:33:38.465Z,-2.98
2023-02-22T23:36:05.668Z,-3.04
2023-02-22T23:38:34.839Z,-2.92
2023-02-22T23:41:02.707Z,-2.89
2023-02-22T23:43:32.553Z,-2.98
2023-02-22T23:46:03.026Z,-3.02
2023-02-22T23:48:30.150Z,-2.98
2023-02-22T23:50:59.316Z,-2.82
2023-02-22T23:53:26.108Z,-2.88
2023-02-22T23:55:52.850Z,-2.95
2023-02-22T23:58:22.841Z,-2.96
